Gina Maria — CUQU4 — position and weather

sailwx.info

Track history (hours):
 
Tides and Currents Weather Stations Pressure Air Temp Water Temp Dewpoint Dewpoint Depression Visibility Wind Speed Wind Dir Waves Ship Positions

Gina Maria

Last reported at 2018-Apr-09 23:30 UTC. Time now 2018-Apr-22 06:24 UTC.
Position N 39°02' W 009°31'.
Warning: this ship's position is 12 days out of date.

Type: Fishing. MMSI: 263317000.

Date/timePositionNaut miles runAvg speedWind from/ knotsBaromVisibWave heightAir tempDewpointWater temp
2018-Apr-09 23:30N 39°02' W 009°31'4 7.5
2018-Apr-09 23:00N 38°58' W 009°33'4 7.7
2018-Apr-09 22:30N 38°55' W 009°34'4 7.5
2018-Apr-09 22:00N 38°51' W 009°36'4 7.5
2018-Apr-09 21:30N 38°47' W 009°37'  
2018-Apr-05 15:26N 38°41' W 009°44'0 0.8
2018-Apr-05 15:00N 38°41' W 009°44'0 0.9
2018-Apr-05 14:29N 38°40' W 009°44'2 3.8
2018-Apr-05 13:50N 38°40' W 009°41'0 0.0
2018-Apr-05 11:16N 38°40' W 009°41'0 0.4
2018-Apr-05 11:00N 38°40' W 009°41'3 1.0
2018-Apr-05 08:04N 38°41' W 009°44'0 0.4
2018-Apr-05 07:55N 38°41' W 009°44'0 0.9
2018-Apr-05 07:30N 38°41' W 009°44'  
2018-Apr-02 11:31N 38°41' W 009°44'0 1.3
2018-Apr-02 11:30N 38°41' W 009°44'1 0.8
2018-Apr-02 10:19N 38°41' W 009°43'0 0.9
2018-Apr-02 09:57N 38°41' W 009°43'2 3.2
2018-Apr-02 09:23N 38°40' W 009°41'  
Track history (hours):
 
Tides and Currents Weather Stations Pressure Air Temp Water Temp Dewpoint Dewpoint Depression Visibility Wind Speed Wind Dir Waves Ship Positions

Gina Maria

Last reported at 2018-Apr-09 23:30 UTC. Time now 2018-Apr-22 06:24 UTC.
Position N 39°02' W 009°31'.
Warning: this ship's position is 12 days out of date.

Type: Fishing. MMSI: 263317000.

Date/timePositionNaut miles runAvg speedWind from/ knotsBaromVisibWave heightAir tempDewpointWater temp
2018-Apr-09 23:30N 39°02' W 009°31'4 7.5
2018-Apr-09 23:00N 38°58' W 009°33'4 7.7
2018-Apr-09 22:30N 38°55' W 009°34'4 7.5
2018-Apr-09 22:00N 38°51' W 009°36'4 7.5
2018-Apr-09 21:30N 38°47' W 009°37'  
2018-Apr-05 15:26N 38°41' W 009°44'0 0.8
2018-Apr-05 15:00N 38°41' W 009°44'0 0.9
2018-Apr-05 14:29N 38°40' W 009°44'2 3.8
2018-Apr-05 13:50N 38°40' W 009°41'0 0.0
2018-Apr-05 11:16N 38°40' W 009°41'0 0.4
2018-Apr-05 11:00N 38°40' W 009°41'3 1.0
2018-Apr-05 08:04N 38°41' W 009°44'0 0.4
2018-Apr-05 07:55N 38°41' W 009°44'0 0.9
2018-Apr-05 07:30N 38°41' W 009°44'  
2018-Apr-02 11:31N 38°41' W 009°44'0 1.3
2018-Apr-02 11:30N 38°41' W 009°44'1 0.8
2018-Apr-02 10:19N 38°41' W 009°43'0 0.9
2018-Apr-02 09:57N 38°41' W 009°43'2 3.2
2018-Apr-02 09:23N 38°40' W 009°41'  

Dump ship's entire track history